気象予報士の航空気象 成田バーガー!!

*All archives   *Admin

2010.02.03 (Wed)

成田バーガー!!

珍しい通報です。


RJAA 030300Z 01011KT 9999 -SN FEW025 BKN050 04/M03 Q1011 NOSIG RMK 1CU025 7SC050 A2988 VIRGA 20KM SE MOV UNKNOWN


尾流雲




VIRGA 尾流雲は雲から落ちる降水現象が地上まで達せず、空中で蒸発・昇華して消えている雲のことです。


あらゆる雲種から、線状の雲が垂れさがっているのが特徴で、途中で気層に変化があることが多く、そのために消えるのですが、航空の運航には注意が必要になります。


地上に達すれば、降水雲となります。



ブログランキングに参加しています。
にほんブログ村 環境ブログ 天気・気象学へ
にほんブログ村
応援クリックをおねがします。


以下、アフィリエイトサイトです。




スポンサーサイト
12:20  |  気象・天気  |  TB(0)  |  CM(0)  |  EDIT  |  Top↑

コメントを投稿する


 管理者だけに表示  (非公開コメント投稿可能)

▲PageTop

この記事のトラックバックURL

→http://weathereucalyptus.blog115.fc2.com/tb.php/384-f8fc8594
この記事にトラックバックする(FC2ブログユーザー)

この記事へのトラックバック

▲PageTop

 | BLOGTOP |